createdAt,value
2022-09-15T00:01:01.041Z,20.14
2022-09-15T00:02:02.996Z,20.14
2022-09-15T00:03:04.708Z,20.10
2022-09-15T00:04:06.344Z,20.03
2022-09-15T00:05:08.311Z,20.00
2022-09-15T00:06:10.001Z,19.96
2022-09-15T00:07:11.550Z,19.90
2022-09-15T00:08:13.357Z,19.90
2022-09-15T00:09:14.948Z,19.90
2022-09-15T00:10:17.547Z,19.86
2022-09-15T00:11:27.153Z,19.87
2022-09-15T00:12:28.791Z,19.83
2022-09-15T00:13:30.354Z,19.80
2022-09-15T00:14:31.926Z,19.80
2022-09-15T00:15:33.528Z,19.79
2022-09-15T00:16:35.226Z,19.79
2022-09-15T00:17:37.023Z,19.79
2022-09-15T00:18:39.586Z,19.80
2022-09-15T00:19:41.153Z,19.80
2022-09-15T00:20:43.551Z,19.80
2022-09-15T00:21:45.131Z,19.83
2022-09-15T00:22:47.596Z,19.82
2022-09-15T00:23:49.274Z,19.80
2022-09-15T00:24:50.860Z,19.80
2022-09-15T00:25:52.933Z,19.82
2022-09-15T00:26:54.562Z,19.85
2022-09-15T00:27:56.710Z,19.82
2022-09-15T00:28:58.938Z,19.80
2022-09-15T00:30:00.499Z,19.83
2022-09-15T00:31:08.029Z,19.85
2022-09-15T00:32:09.830Z,19.83
2022-09-15T00:33:12.045Z,19.83
2022-09-15T00:34:13.888Z,19.83
2022-09-15T00:35:15.583Z,19.85
2022-09-15T00:36:17.341Z,19.85
2022-09-15T00:37:19.263Z,19.85
2022-09-15T00:38:20.835Z,19.86
2022-09-15T00:39:22.413Z,19.86
2022-09-15T00:40:26.383Z,19.87
2022-09-15T00:41:28.106Z,19.87
2022-09-15T00:42:29.821Z,19.86
2022-09-15T00:43:46.710Z,19.85
2022-09-15T00:44:57.084Z,19.86
2022-09-15T00:45:58.678Z,19.85
2022-09-15T00:47:18.335Z,19.85
2022-09-15T00:48:21.691Z,19.89
2022-09-15T00:49:34.342Z,19.89
2022-09-15T00:50:36.370Z,19.90
2022-09-15T00:51:56.236Z,19.92
2022-09-15T00:52:59.916Z,19.92
2022-09-15T00:54:03.375Z,19.93
2022-09-15T00:55:23.166Z,19.93
2022-09-15T00:56:24.880Z,19.94
2022-09-15T00:57:30.307Z,19.97
2022-09-15T00:58:37.622Z,19.94
2022-09-15T00:59:41.968Z,19.94
2022-09-15T01:00:47.819Z,19.94
2022-09-15T01:01:50.429Z,19.97
2022-09-15T01:02:52.014Z,19.96
2022-09-15T01:03:53.963Z,19.99
2022-09-15T01:04:58.348Z,19.97
2022-09-15T01:06:05.791Z,20.01
2022-09-15T01:07:07.974Z,19.97
2022-09-15T01:08:14.614Z,20.00
2022-09-15T01:09:29.379Z,19.99
2022-09-15T01:10:34.139Z,19.99
2022-09-15T01:11:35.719Z,20.03
2022-09-15T01:12:37.312Z,20.01
2022-09-15T01:13:38.904Z,20.01
2022-09-15T01:14:40.566Z,20.01
2022-09-15T01:16:03.679Z,20.00
2022-09-15T01:17:14.480Z,20.03
2022-09-15T01:18:24.822Z,20.01
2022-09-15T01:20:01.464Z,20.01
2022-09-15T01:21:03.014Z,20.06
2022-09-15T01:22:33.895Z,20.08
2022-09-15T01:23:58.427Z,20.08
2022-09-15T01:25:20.600Z,20.06
2022-09-15T01:26:59.147Z,20.08
2022-09-15T01:28:06.663Z,20.06
2022-09-15T01:29:45.470Z,20.09
2022-09-15T01:30:51.065Z,20.08
2022-09-15T01:32:32.679Z,20.10
2022-09-15T01:33:37.721Z,20.05
2022-09-15T01:34:45.133Z,20.09
2022-09-15T01:36:02.864Z,20.09
2022-09-15T01:37:06.973Z,20.08
2022-09-15T01:38:35.967Z,20.10
2022-09-15T01:39:39.304Z,20.09
2022-09-15T01:40:47.380Z,20.08
2022-09-15T01:42:00.102Z,20.08
2022-09-15T01:43:01.938Z,20.06
2022-09-15T01:44:14.804Z,20.08
2022-09-15T01:45:22.105Z,20.08
2022-09-15T01:46:24.741Z,20.06
2022-09-15T01:47:26.372Z,20.08
2022-09-15T01:48:28.032Z,20.06
2022-09-15T01:49:31.548Z,20.12
2022-09-15T01:50:36.079Z,20.08
2022-09-15T01:51:37.719Z,20.08
2022-09-15T01:52:43.717Z,20.10
2022-09-15T01:53:46.106Z,20.09
2022-09-15T01:54:51.242Z,20.10
2022-09-15T01:55:56.515Z,20.09
2022-09-15T01:56:58.089Z,20.08
2022-09-15T01:57:59.679Z,20.10
2022-09-15T01:59:01.264Z,20.09
2022-09-15T02:00:03.837Z,20.09
2022-09-15T02:01:05.505Z,20.09
2022-09-15T02:02:16.652Z,20.12
2022-09-15T02:03:27.735Z,20.12
2022-09-15T02:04:33.854Z,20.10
2022-09-15T02:05:40.055Z,20.12
2022-09-15T02:07:04.171Z,20.12
2022-09-15T02:08:28.593Z,20.12
2022-09-15T02:09:36.543Z,20.12
2022-09-15T02:10:48.517Z,20.12
2022-09-15T02:11:58.971Z,20.10
2022-09-15T02:13:10.144Z,20.12
2022-09-15T02:14:32.372Z,20.10
2022-09-15T02:15:37.595Z,20.12
2022-09-15T02:16:41.440Z,20.10
2022-09-15T02:17:45.742Z,20.10
2022-09-15T02:18:51.277Z,20.14
2022-09-15T02:19:55.899Z,20.12
2022-09-15T02:21:00.832Z,20.13
2022-09-15T02:22:17.732Z,20.13
2022-09-15T02:23:31.479Z,20.16
2022-09-15T02:24:38.234Z,20.14
2022-09-15T02:25:45.111Z,20.13
2022-09-15T02:26:48.362Z,20.10
2022-09-15T02:27:51.153Z,20.13
2022-09-15T02:28:53.665Z,20.10
2022-09-15T02:29:57.428Z,20.12
2022-09-15T02:30:59.032Z,20.13
2022-09-15T02:32:06.854Z,20.13
2022-09-15T02:33:12.299Z,20.14
2022-09-15T02:34:22.159Z,20.13
2022-09-15T02:35:25.082Z,20.14
2022-09-15T02:36:27.058Z,20.14
2022-09-15T02:37:28.759Z,20.16
2022-09-15T02:38:33.423Z,20.12
2022-09-15T02:39:37.255Z,20.12
2022-09-15T02:40:43.322Z,20.13
2022-09-15T02:41:45.686Z,20.13
2022-09-15T02:42:55.886Z,20.12
2022-09-15T02:43:57.451Z,20.12
2022-09-15T02:44:59.848Z,20.13
2022-09-15T02:46:01.516Z,20.13
2022-09-15T02:47:03.926Z,20.13
2022-09-15T02:48:05.612Z,20.13
2022-09-15T02:49:07.759Z,20.12
2022-09-15T02:50:09.518Z,20.09
2022-09-15T02:51:11.163Z,20.08
2022-09-15T02:52:12.902Z,20.06
2022-09-15T02:53:14.495Z,20.08
2022-09-15T02:54:16.070Z,20.06
2022-09-15T02:55:17.752Z,20.03
2022-09-15T02:56:19.464Z,20.06
2022-09-15T02:57:21.149Z,20.06
2022-09-15T02:58:22.712Z,20.06
2022-09-15T02:59:24.355Z,20.08
2022-09-15T03:00:26.461Z,20.05
2022-09-15T03:01:34.892Z,20.01
2022-09-15T03:02:36.996Z,20.03
2022-09-15T03:03:42.775Z,19.97
2022-09-15T03:04:44.588Z,19.92
2022-09-15T03:05:46.189Z,19.86
2022-09-15T03:06:47.834Z,19.86
2022-09-15T03:07:49.572Z,19.85
2022-09-15T03:08:56.651Z,19.80
2022-09-15T03:09:58.604Z,19.80
2022-09-15T03:11:00.155Z,19.82
2022-09-15T03:12:01.939Z,19.79
2022-09-15T03:13:03.599Z,19.78
2022-09-15T03:14:06.132Z,19.78
2022-09-15T03:15:09.812Z,19.79
2022-09-15T03:16:12.519Z,19.78
2022-09-15T03:17:14.150Z,19.73
2022-09-15T03:18:15.779Z,19.75
2022-09-15T03:19:17.423Z,19.76
2022-09-15T03:20:25.952Z,19.73
2022-09-15T03:21:29.529Z,19.69
2022-09-15T03:22:31.297Z,19.72
2022-09-15T03:23:33.038Z,19.68
2022-09-15T03:24:34.575Z,19.68
2022-09-15T03:25:36.116Z,19.62
2022-09-15T03:26:37.763Z,19.61
2022-09-15T03:27:39.330Z,19.59
2022-09-15T03:28:41.017Z,19.59
2022-09-15T03:29:42.580Z,19.57
2022-09-15T03:30:44.279Z,19.59
2022-09-15T03:31:45.945Z,19.54
2022-09-15T03:32:48.766Z,19.55
2022-09-15T03:33:50.492Z,19.54
2022-09-15T03:34:55.263Z,19.54
2022-09-15T03:36:00.469Z,19.54
2022-09-15T03:37:02.040Z,19.54
2022-09-15T03:38:03.824Z,19.49
2022-09-15T03:39:05.421Z,19.51
2022-09-15T03:40:07.560Z,19.52
2022-09-15T03:41:11.149Z,19.52
2022-09-15T03:42:12.778Z,19.57
2022-09-15T03:43:18.546Z,19.57
2022-09-15T03:44:20.316Z,19.61
2022-09-15T03:45:21.963Z,19.61
2022-09-15T03:46:23.604Z,19.65
2022-09-15T03:47:25.155Z,19.66
2022-09-15T03:48:27.322Z,19.66
2022-09-15T03:49:29.154Z,19.63
2022-09-15T03:50:31.292Z,19.68
2022-09-15T03:51:32.839Z,19.70
2022-09-15T03:52:34.408Z,19.70
2022-09-15T03:53:36.288Z,19.72
2022-09-15T03:54:37.855Z,19.72
2022-09-15T03:55:39.480Z,19.70
2022-09-15T03:56:41.124Z,19.72
2022-09-15T03:57:42.686Z,19.70
2022-09-15T03:58:44.273Z,19.73
2022-09-15T03:59:45.849Z,19.72
2022-09-15T04:00:47.497Z,19.73
2022-09-15T04:01:49.244Z,19.78
2022-09-15T04:02:50.892Z,19.79
2022-09-15T04:03:52.467Z,19.79
2022-09-15T04:04:54.039Z,19.80
2022-09-15T04:05:55.578Z,19.82
2022-09-15T04:06:57.195Z,19.86
2022-09-15T04:07:58.807Z,19.87
2022-09-15T04:09:00.414Z,19.89
2022-09-15T04:10:02.514Z,19.87
2022-09-15T04:11:05.969Z,19.87
2022-09-15T04:12:07.637Z,19.89
2022-09-15T04:13:09.257Z,19.87
2022-09-15T04:14:10.848Z,19.87
2022-09-15T04:15:12.401Z,19.86
2022-09-15T04:16:16.054Z,19.89
2022-09-15T04:17:17.762Z,19.90
2022-09-15T04:18:19.346Z,19.93
2022-09-15T04:19:20.933Z,19.92
2022-09-15T04:20:22.516Z,19.94
2022-09-15T04:21:25.017Z,19.97
2022-09-15T04:22:27.733Z,19.96
2022-09-15T04:23:29.328Z,20.00
2022-09-15T04:24:30.897Z,20.01
2022-09-15T04:25:32.576Z,19.99
2022-09-15T04:26:35.363Z,19.96
2022-09-15T04:27:38.702Z,19.96
2022-09-15T04:28:40.325Z,19.96
2022-09-15T04:29:42.242Z,19.97
2022-09-15T04:30:44.025Z,19.96
2022-09-15T04:31:46.845Z,19.97
2022-09-15T04:32:50.036Z,20.01
2022-09-15T04:33:54.996Z,20.00
2022-09-15T04:34:56.582Z,20.00
2022-09-15T04:36:00.011Z,20.01
2022-09-15T04:37:02.620Z,20.00
2022-09-15T04:38:04.203Z,20.00
2022-09-15T04:39:06.773Z,19.99
2022-09-15T04:40:10.291Z,19.99
2022-09-15T04:41:12.421Z,19.97
2022-09-15T04:42:13.983Z,19.99
2022-09-15T04:43:15.555Z,20.00
2022-09-15T04:44:17.185Z,20.00
2022-09-15T04:45:18.769Z,19.97
2022-09-15T04:46:20.492Z,19.99
2022-09-15T04:47:22.136Z,19.97
2022-09-15T04:48:23.870Z,19.97
2022-09-15T04:49:25.501Z,19.97
2022-09-15T04:50:27.323Z,19.96
2022-09-15T04:51:29.070Z,19.96
2022-09-15T04:52:31.003Z,19.96
2022-09-15T04:53:32.705Z,19.97
2022-09-15T04:54:34.895Z,19.93
2022-09-15T04:55:36.657Z,19.94
2022-09-15T04:56:38.448Z,19.94
2022-09-15T04:57:40.033Z,19.93
2022-09-15T04:58:43.327Z,19.93
2022-09-15T04:59:44.940Z,19.92
2022-09-15T05:00:46.560Z,19.93
2022-09-15T05:01:48.327Z,19.90
2022-09-15T05:02:50.266Z,19.92
2022-09-15T05:03:52.151Z,19.89
2022-09-15T05:04:53.832Z,19.90
2022-09-15T05:05:55.390Z,19.89
2022-09-15T05:06:57.022Z,19.89
2022-09-15T05:08:00.910Z,19.90
2022-09-15T05:09:05.433Z,19.90
2022-09-15T05:10:10.818Z,19.93
2022-09-15T05:11:12.541Z,19.94
2022-09-15T05:12:14.336Z,19.92
2022-09-15T05:13:15.897Z,19.92
2022-09-15T05:14:17.578Z,19.93
2022-09-15T05:15:19.169Z,19.93
2022-09-15T05:16:22.743Z,19.92
2022-09-15T05:17:26.787Z,19.94
2022-09-15T05:18:28.626Z,19.99
2022-09-15T05:19:30.205Z,19.99
2022-09-15T05:20:31.779Z,20.01
2022-09-15T05:21:33.669Z,20.00
2022-09-15T05:22:39.511Z,20.08
2022-09-15T05:23:43.826Z,20.05
2022-09-15T05:24:46.131Z,20.08
2022-09-15T05:25:57.611Z,20.06
2022-09-15T05:26:59.173Z,20.05
2022-09-15T05:28:00.752Z,20.03
2022-09-15T05:29:02.400Z,20.00
2022-09-15T05:30:35.179Z,20.01
2022-09-15T05:31:31.272Z,20.03
2022-09-15T05:32:33.134Z,20.06
2022-09-15T05:33:34.722Z,20.06
2022-09-15T05:34:36.496Z,20.05
2022-09-15T05:35:38.090Z,20.05
2022-09-15T05:36:39.679Z,20.05
2022-09-15T05:37:41.277Z,20.06
2022-09-15T05:38:43.488Z,20.06
2022-09-15T05:39:45.901Z,20.09
2022-09-15T05:40:47.777Z,20.09
2022-09-15T05:41:49.495Z,20.09
2022-09-15T05:42:51.087Z,20.12
2022-09-15T05:43:53.436Z,20.14
2022-09-15T05:44:55.050Z,20.17
2022-09-15T05:45:57.871Z,20.21
2022-09-15T05:46:59.521Z,20.24
2022-09-15T05:48:01.289Z,20.24
2022-09-15T05:49:02.922Z,20.30
2022-09-15T05:50:04.709Z,20.33
2022-09-15T05:51:06.486Z,20.34
2022-09-15T05:52:08.415Z,20.39
2022-09-15T05:53:10.007Z,20.44
2022-09-15T05:54:12.181Z,20.48
2022-09-15T05:55:13.822Z,20.54
2022-09-15T05:56:16.102Z,20.63
2022-09-15T05:57:17.665Z,20.68
2022-09-15T05:58:19.675Z,20.71
2022-09-15T05:59:21.219Z,20.74
2022-09-15T06:00:22.789Z,20.74
2022-09-15T06:01:25.931Z,20.75
2022-09-15T06:02:27.579Z,20.78
2022-09-15T06:03:31.057Z,20.77
2022-09-15T06:04:34.232Z,20.77
2022-09-15T06:05:36.175Z,20.81
2022-09-15T06:06:37.758Z,20.82
2022-09-15T06:07:39.353Z,20.84
2022-09-15T06:08:44.489Z,20.87
2022-09-15T06:09:46.553Z,20.84
2022-09-15T06:10:48.242Z,20.87
2022-09-15T06:11:49.853Z,20.90
2022-09-15T06:12:54.775Z,20.92
2022-09-15T06:13:59.012Z,20.95
2022-09-15T06:15:00.618Z,21.05
2022-09-15T06:16:07.015Z,21.16
2022-09-15T06:17:08.671Z,21.21
2022-09-15T06:18:10.221Z,21.23
2022-09-15T06:19:11.796Z,21.31
2022-09-15T06:20:13.589Z,21.42
2022-09-15T06:21:19.657Z,21.52
2022-09-15T06:22:21.302Z,21.57
2022-09-15T06:23:22.848Z,21.60
2022-09-15T06:24:24.428Z,21.65
2022-09-15T06:25:26.140Z,21.66
2022-09-15T06:26:27.881Z,21.69
2022-09-15T06:27:29.442Z,21.69
2022-09-15T06:28:31.008Z,21.70
2022-09-15T06:29:32.618Z,21.72
2022-09-15T06:30:34.267Z,21.73
2022-09-15T06:31:36.030Z,21.73
2022-09-15T06:32:37.742Z,21.72
2022-09-15T06:35:08.787Z,21.74
2022-09-15T06:36:14.098Z,21.77
2022-09-15T06:37:15.992Z,21.72
2022-09-15T06:38:17.615Z,21.73
2022-09-15T06:39:19.371Z,21.72
2022-09-15T06:40:21.704Z,21.70
2022-09-15T06:41:23.487Z,21.67
2022-09-15T06:42:25.155Z,21.70
2022-09-15T06:43:26.758Z,21.69
2022-09-15T06:44:28.387Z,21.70
2022-09-15T06:45:30.341Z,21.69
2022-09-15T06:46:31.926Z,21.69
2022-09-15T06:47:34.240Z,21.69
2022-09-15T06:48:36.523Z,21.70
2022-09-15T06:49:38.102Z,21.69
2022-09-15T06:50:39.680Z,21.67
2022-09-15T06:51:42.145Z,21.70
2022-09-15T06:52:43.763Z,21.66
2022-09-15T06:53:45.608Z,21.67
2022-09-15T06:54:47.226Z,21.67
2022-09-15T06:55:48.866Z,21.69
2022-09-15T06:56:50.545Z,21.66
2022-09-15T06:57:52.172Z,21.65
2022-09-15T06:58:54.085Z,21.65
2022-09-15T06:59:55.757Z,21.66
2022-09-15T07:01:25.334Z,21.70
2022-09-15T07:02:26.969Z,21.69
2022-09-15T07:03:28.703Z,21.65
2022-09-15T07:04:30.435Z,21.66
2022-09-15T07:05:32.003Z,21.69
2022-09-15T07:06:33.955Z,21.69
2022-09-15T07:07:35.590Z,21.70
2022-09-15T07:08:37.164Z,21.72
2022-09-15T07:09:41.188Z,21.74
2022-09-15T07:10:44.940Z,21.76
2022-09-15T07:11:46.729Z,21.83
2022-09-15T07:12:48.302Z,21.86
2022-09-15T07:13:49.982Z,21.83
2022-09-15T07:14:51.822Z,21.90
2022-09-15T07:15:58.009Z,21.94
2022-09-15T07:16:59.601Z,21.93
2022-09-15T07:18:01.168Z,21.94
2022-09-15T07:19:03.810Z,21.97
2022-09-15T07:20:06.050Z,21.97
2022-09-15T07:21:09.428Z,21.97
2022-09-15T07:22:12.050Z,21.98
2022-09-15T07:23:13.848Z,21.98
2022-09-15T07:24:15.601Z,22.00
2022-09-15T07:25:17.210Z,22.06
2022-09-15T07:26:23.193Z,22.11
2022-09-15T07:27:26.940Z,22.14
2022-09-15T07:28:28.534Z,22.22
2022-09-15T07:29:30.174Z,22.30
2022-09-15T07:30:31.818Z,22.28
2022-09-15T07:31:34.281Z,22.27
2022-09-15T07:32:36.015Z,22.27
2022-09-15T07:33:37.729Z,22.31
2022-09-15T07:34:39.377Z,22.31
2022-09-15T07:35:42.447Z,22.38
2022-09-15T07:36:44.030Z,22.44
2022-09-15T07:37:45.795Z,22.45
2022-09-15T07:38:48.215Z,22.48
2022-09-15T07:39:50.261Z,22.47
2022-09-15T07:40:52.374Z,22.45
2022-09-15T07:41:54.024Z,22.43
2022-09-15T07:42:56.042Z,22.40
2022-09-15T07:43:58.537Z,22.40
2022-09-15T07:45:00.128Z,22.43
2022-09-15T07:46:01.970Z,22.35
2022-09-15T07:47:03.685Z,22.40
2022-09-15T07:48:05.400Z,22.44
2022-09-15T07:49:08.273Z,22.47
2022-09-15T07:50:09.956Z,22.52
2022-09-15T07:51:11.775Z,22.59
2022-09-15T07:52:13.373Z,22.64
2022-09-15T07:53:14.969Z,22.62
2022-09-15T07:54:21.081Z,22.72
2022-09-15T07:55:24.383Z,22.75
2022-09-15T07:56:26.046Z,22.78
2022-09-15T07:57:27.726Z,22.79
2022-09-15T07:58:29.686Z,22.94
2022-09-15T07:59:31.813Z,22.99
2022-09-15T08:00:33.498Z,23.08
2022-09-15T08:01:35.157Z,23.18
2022-09-15T08:02:36.783Z,23.23
2022-09-15T08:03:42.898Z,23.23
2022-09-15T08:04:44.656Z,23.30
2022-09-15T08:05:46.337Z,23.33
2022-09-15T08:06:47.997Z,23.38
2022-09-15T08:07:50.296Z,23.42
2022-09-15T08:08:56.290Z,23.47
2022-09-15T08:10:01.473Z,23.51
2022-09-15T08:11:09.336Z,23.56
2022-09-15T08:12:10.964Z,23.54
2022-09-15T08:13:12.555Z,23.61
2022-09-15T08:14:14.298Z,23.67
2022-09-15T08:15:15.876Z,23.74
2022-09-15T08:16:22.328Z,23.81
2022-09-15T08:17:24.047Z,23.84
2022-09-15T08:18:25.624Z,23.84
2022-09-15T08:19:31.301Z,23.93
2022-09-15T08:20:33.238Z,23.96
2022-09-15T08:21:34.898Z,24.01
2022-09-15T08:22:36.717Z,24.05
2022-09-15T08:23:38.439Z,24.08
2022-09-15T08:24:40.001Z,24.08
2022-09-15T08:25:41.669Z,24.07
2022-09-15T08:26:43.254Z,24.08
2022-09-15T08:27:44.835Z,24.10
2022-09-15T08:28:46.441Z,24.11
2022-09-15T08:29:48.181Z,24.11
2022-09-15T08:30:49.899Z,24.14
2022-09-15T08:31:51.509Z,24.11
2022-09-15T08:32:53.190Z,24.08
2022-09-15T08:33:55.440Z,24.10
2022-09-15T08:34:57.317Z,24.11
2022-09-15T08:36:03.717Z,24.11
2022-09-15T08:37:05.404Z,24.15
2022-09-15T08:38:07.037Z,24.20
2022-09-15T08:39:08.769Z,24.21
2022-09-15T08:40:32.003Z,24.25
2022-09-15T08:41:49.532Z,24.28
2022-09-15T08:42:53.125Z,24.33
2022-09-15T08:44:32.049Z,24.42
2022-09-15T08:45:48.684Z,24.47
2022-09-15T08:46:54.317Z,24.49
2022-09-15T08:48:00.225Z,24.56
2022-09-15T08:49:13.245Z,24.68
2022-09-15T08:50:28.291Z,24.75
2022-09-15T08:51:34.042Z,24.79
2022-09-15T08:52:57.996Z,24.77
2022-09-15T08:54:05.801Z,24.87
2022-09-15T08:55:13.420Z,24.94
2022-09-15T08:56:17.343Z,24.97
2022-09-15T08:57:20.077Z,25.02
2022-09-15T08:58:25.951Z,25.03
2022-09-15T08:59:32.522Z,25.10
2022-09-15T09:00:34.131Z,25.07
2022-09-15T09:01:54.090Z,25.14
2022-09-15T09:03:29.034Z,25.16
2022-09-15T09:04:58.337Z,25.27
2022-09-15T09:06:27.472Z,25.36
2022-09-15T09:07:39.414Z,25.45
2022-09-15T09:08:50.064Z,25.50
2022-09-15T09:10:33.146Z,25.45
2022-09-15T09:11:38.037Z,25.55
2022-09-15T09:12:52.320Z,25.53
2022-09-15T09:14:07.562Z,25.53
2022-09-15T09:15:33.106Z,25.54
2022-09-15T09:16:43.989Z,25.47
2022-09-15T09:18:19.604Z,25.50
2022-09-15T09:19:47.034Z,25.47
2022-09-15T09:20:59.410Z,25.48
2022-09-15T09:22:07.847Z,25.50
2022-09-15T09:23:13.003Z,25.54
2022-09-15T09:24:19.135Z,25.58
2022-09-15T09:25:27.741Z,25.61
2022-09-15T09:26:30.399Z,25.61
2022-09-15T09:27:36.152Z,25.65
2022-09-15T09:28:46.043Z,25.70
2022-09-15T09:29:52.028Z,25.65
2022-09-15T09:30:53.610Z,25.74
2022-09-15T09:31:55.218Z,25.71
2022-09-15T09:33:25.304Z,25.77
2022-09-15T09:34:42.086Z,25.81
2022-09-15T09:35:45.059Z,25.82
2022-09-15T09:36:52.592Z,25.85
2022-09-15T09:37:54.755Z,25.89
2022-09-15T09:38:56.387Z,25.94
2022-09-15T09:39:58.078Z,25.99
2022-09-15T09:41:02.355Z,25.99
2022-09-15T09:42:06.196Z,26.02
2022-09-15T09:43:08.153Z,26.05
2022-09-15T09:44:11.275Z,26.12
2022-09-15T09:45:13.872Z,26.21
2022-09-15T09:46:17.708Z,26.26
2022-09-15T09:47:20.048Z,26.19
2022-09-15T09:48:24.269Z,26.26
2022-09-15T09:49:27.378Z,26.28
2022-09-15T09:50:43.184Z,26.24
2022-09-15T09:51:49.045Z,26.19
2022-09-15T09:52:50.631Z,26.15
2022-09-15T09:53:53.634Z,26.16
2022-09-15T09:55:00.747Z,26.15
2022-09-15T09:56:24.833Z,26.18
2022-09-15T09:57:32.953Z,26.16
2022-09-15T09:58:34.564Z,26.16
2022-09-15T09:59:42.517Z,26.14
2022-09-15T10:00:44.115Z,26.16
2022-09-15T10:02:04.105Z,26.15
2022-09-15T10:03:27.081Z,26.12
2022-09-15T10:04:32.276Z,26.02
2022-09-15T10:05:33.902Z,25.98
2022-09-15T10:06:35.871Z,25.95
2022-09-15T10:07:40.107Z,25.95
2022-09-15T10:09:04.229Z,25.96
2022-09-15T10:10:06.466Z,25.99
2022-09-15T10:11:10.271Z,25.99
2022-09-15T10:12:18.878Z,26.01
2022-09-15T10:13:20.973Z,26.04
2022-09-15T10:14:25.416Z,25.99
2022-09-15T10:15:28.878Z,26.02
2022-09-15T10:16:30.687Z,26.05
2022-09-15T10:17:42.074Z,26.11
2022-09-15T10:18:43.882Z,26.12
2022-09-15T10:19:57.573Z,26.14
2022-09-15T10:20:59.639Z,26.21
2022-09-15T10:22:01.272Z,26.19
2022-09-15T10:23:07.611Z,26.21
2022-09-15T10:24:27.450Z,26.22
2022-09-15T10:25:49.309Z,26.25
2022-09-15T10:27:19.088Z,26.29
2022-09-15T10:28:23.190Z,26.31
2022-09-15T10:29:24.830Z,26.31
2022-09-15T10:30:27.126Z,26.22
2022-09-15T10:31:31.625Z,26.24
2022-09-15T10:32:33.370Z,26.15
2022-09-15T10:33:36.379Z,26.11
2022-09-15T10:34:37.950Z,26.05
2022-09-15T10:35:41.627Z,26.06
2022-09-15T10:36:43.212Z,26.01
2022-09-15T10:38:12.524Z,26.02
2022-09-15T10:39:26.619Z,26.01
2022-09-15T10:40:37.254Z,26.04
2022-09-15T10:41:43.998Z,26.06
2022-09-15T10:42:52.667Z,26.08
2022-09-15T10:44:02.085Z,26.09
2022-09-15T10:45:12.777Z,26.12
2022-09-15T10:46:25.506Z,26.12
2022-09-15T10:47:49.275Z,26.15
2022-09-15T10:49:11.036Z,26.09
2022-09-15T10:50:16.597Z,26.08
2022-09-15T10:51:23.975Z,26.06
2022-09-15T10:52:29.058Z,26.01
2022-09-15T10:54:00.671Z,25.94
2022-09-15T10:55:36.766Z,25.85
2022-09-15T10:56:44.691Z,25.82
2022-09-15T10:58:08.110Z,25.75
2022-09-15T10:59:15.905Z,25.71
2022-09-15T11:00:22.451Z,25.64
2022-09-15T11:01:29.917Z,25.63
2022-09-15T11:02:50.326Z,25.61
2022-09-15T11:04:01.011Z,25.55
2022-09-15T11:05:11.739Z,25.55
2022-09-15T11:06:41.308Z,25.54
2022-09-15T11:07:58.999Z,25.50
2022-09-15T11:09:06.956Z,25.47
2022-09-15T11:10:30.192Z,25.41
2022-09-15T11:11:39.211Z,25.36
2022-09-15T11:12:47.649Z,25.31
2022-09-15T11:14:17.488Z,25.26
2022-09-15T11:15:37.812Z,25.22
2022-09-15T11:16:49.699Z,25.13
2022-09-15T11:18:23.500Z,25.14
2022-09-15T11:19:48.289Z,25.12
2022-09-15T11:21:09.283Z,25.09
2022-09-15T11:22:49.475Z,25.07
2022-09-15T11:24:13.246Z,25.06
2022-09-15T11:25:20.617Z,25.06
2022-09-15T11:26:30.129Z,25.03
2022-09-15T11:27:35.471Z,25.02
2022-09-15T11:28:40.662Z,24.97
2022-09-15T11:30:01.288Z,24.96
2022-09-15T11:31:06.115Z,24.94
2022-09-15T11:32:11.831Z,24.89
2022-09-15T11:33:18.238Z,24.86
2022-09-15T11:34:21.022Z,24.82
2022-09-15T11:35:37.286Z,24.79
2022-09-15T11:36:52.120Z,24.77
2022-09-15T11:37:54.377Z,24.76
2022-09-15T11:39:24.778Z,24.79
2022-09-15T11:40:33.519Z,24.79
2022-09-15T11:41:49.765Z,24.82
2022-09-15T11:43:24.799Z,24.80
2022-09-15T11:44:33.192Z,24.86
2022-09-15T11:45:37.800Z,24.89
2022-09-15T11:47:02.823Z,24.90
2022-09-15T11:48:13.469Z,24.94
2022-09-15T11:49:23.408Z,25.02
2022-09-15T11:50:33.477Z,25.06
2022-09-15T11:51:39.282Z,25.10
2022-09-15T11:52:52.776Z,25.16
2022-09-15T11:53:57.825Z,25.19
2022-09-15T11:55:01.971Z,25.20
2022-09-15T11:56:39.055Z,25.26
2022-09-15T11:57:47.858Z,25.28
2022-09-15T11:58:58.100Z,25.28
2022-09-15T12:00:10.363Z,25.27
2022-09-15T12:01:11.912Z,25.28
2022-09-15T12:02:32.817Z,25.30
2022-09-15T12:03:38.013Z,25.31
2022-09-15T12:05:11.389Z,25.28
2022-09-15T12:06:34.925Z,25.28
2022-09-15T12:07:45.213Z,25.31
2022-09-15T12:08:55.309Z,25.27
2022-09-15T12:10:10.132Z,25.28
2022-09-15T12:11:18.598Z,25.30
2022-09-15T12:12:20.461Z,25.26
2022-09-15T12:13:24.231Z,25.20
2022-09-15T12:14:36.421Z,25.20
2022-09-15T12:15:38.005Z,25.19
2022-09-15T12:16:39.764Z,25.12
2022-09-15T12:18:06.668Z,25.10
2022-09-15T12:19:36.702Z,25.06
2022-09-15T12:20:43.379Z,25.00
2022-09-15T12:22:23.521Z,24.99
2022-09-15T12:23:29.325Z,24.97
2022-09-15T12:24:48.779Z,24.94
2022-09-15T12:26:14.706Z,25.00
2022-09-15T12:27:20.299Z,24.99
2022-09-15T12:28:21.948Z,25.00
2022-09-15T12:29:26.567Z,24.99
2022-09-15T12:30:39.541Z,24.97
2022-09-15T12:31:41.314Z,24.97
2022-09-15T12:32:43.022Z,24.94
2022-09-15T12:34:03.649Z,24.90
2022-09-15T12:35:17.686Z,24.83
2022-09-15T12:36:35.734Z,24.28
2022-09-15T12:37:47.536Z,24.11
2022-09-15T12:38:49.518Z,24.00
2022-09-15T12:39:51.369Z,23.64
2022-09-15T12:40:57.230Z,23.36
2022-09-15T12:42:01.570Z,23.30
2022-09-15T12:43:04.610Z,23.12
2022-09-15T12:44:16.041Z,22.92
2022-09-15T12:45:23.653Z,22.85
2022-09-15T12:46:25.259Z,22.78
2022-09-15T12:47:32.199Z,22.64
2022-09-15T12:48:34.410Z,22.52
2022-09-15T12:49:42.529Z,22.30
2022-09-15T12:50:44.544Z,22.25
2022-09-15T12:51:49.768Z,22.18
2022-09-15T12:52:54.413Z,22.13
2022-09-15T12:53:57.976Z,22.01
2022-09-15T12:55:01.649Z,21.92
2022-09-15T12:56:08.191Z,21.86
2022-09-15T12:57:20.178Z,21.87
2022-09-15T12:58:48.239Z,21.73
2022-09-15T12:59:50.005Z,21.74
2022-09-15T13:01:17.041Z,21.65
2022-09-15T13:02:46.847Z,21.52
2022-09-15T13:03:51.340Z,21.49
2022-09-15T13:04:54.391Z,21.55
2022-09-15T13:06:13.731Z,21.57
2022-09-15T13:07:15.322Z,21.62
2022-09-15T13:08:25.856Z,21.66
2022-09-15T13:09:27.987Z,21.74
2022-09-15T13:10:37.145Z,21.80
2022-09-15T13:11:40.162Z,21.84
2022-09-15T13:12:47.872Z,21.97
2022-09-15T13:14:06.674Z,22.01
2022-09-15T13:15:13.465Z,22.07
2022-09-15T13:16:41.287Z,22.10
2022-09-15T13:17:44.626Z,22.10
2022-09-15T13:18:46.383Z,22.08
2022-09-15T13:19:48.996Z,22.07
2022-09-15T13:20:58.122Z,22.06
2022-09-15T13:22:11.809Z,22.08
2022-09-15T13:23:13.607Z,22.03
2022-09-15T13:24:40.442Z,22.08
2022-09-15T13:25:42.109Z,22.08
2022-09-15T13:26:44.759Z,22.04
2022-09-15T13:27:48.241Z,22.04
2022-09-15T13:28:51.641Z,22.03
2022-09-15T13:30:03.085Z,21.90
2022-09-15T13:31:17.095Z,21.86
2022-09-15T13:32:43.709Z,21.72
2022-09-15T13:35:39.214Z,21.62
2022-09-15T13:38:53.740Z,21.49
2022-09-15T13:40:08.111Z,21.47
2022-09-15T13:41:24.814Z,21.47
2022-09-15T13:42:37.138Z,21.52
2022-09-15T13:43:44.412Z,21.49
2022-09-15T13:44:48.701Z,21.52
2022-09-15T13:45:59.261Z,21.52
2022-09-15T13:47:25.301Z,21.50
2022-09-15T13:48:59.028Z,21.47
2022-09-15T13:50:19.026Z,21.38
2022-09-15T13:51:30.272Z,21.35
2022-09-15T13:52:58.650Z,21.32
2022-09-15T13:54:05.606Z,21.36
2022-09-15T13:55:28.016Z,21.38
2022-09-15T13:56:35.720Z,21.39
2022-09-15T13:59:08.624Z,21.45
2022-09-15T14:00:26.927Z,21.47
2022-09-15T14:01:34.197Z,21.50
2022-09-15T14:02:35.977Z,21.55
2022-09-15T14:03:57.309Z,21.59
2022-09-15T14:04:58.955Z,21.63
2022-09-15T14:06:00.544Z,21.63
2022-09-15T14:07:02.334Z,21.69
2022-09-15T14:08:05.933Z,21.73
2022-09-15T14:09:31.214Z,21.79
2022-09-15T14:10:45.464Z,21.80
2022-09-15T14:11:48.464Z,21.82
2022-09-15T14:12:50.164Z,21.82
2022-09-15T14:13:51.808Z,21.82
2022-09-15T14:14:54.754Z,21.80
2022-09-15T14:16:01.281Z,21.76
2022-09-15T14:17:03.272Z,21.70
2022-09-15T14:18:05.469Z,21.73
2022-09-15T14:19:33.878Z,21.70
2022-09-15T14:20:35.699Z,21.62
2022-09-15T14:21:49.032Z,21.41
2022-09-15T14:22:53.652Z,21.36
2022-09-15T14:23:57.179Z,21.06